sensor_id;sensor_type;location;lat;lon;timestamp;P1;durP1;ratioP1;P2;durP2;ratioP2
26820;SDS011;37186;51.394;5.454;2023-02-20T00:01:03;2.60;;;2.60;;
26820;SDS011;37186;51.394;5.454;2023-02-20T00:04:04;2.60;;;2.60;;
26820;SDS011;37186;51.394;5.454;2023-02-20T00:07:04;2.60;;;2.60;;
26820;SDS011;37186;51.394;5.454;2023-02-20T00:10:05;2.90;;;2.80;;
26820;SDS011;37186;51.394;5.454;2023-02-20T00:13:06;2.60;;;2.60;;
26820;SDS011;37186;51.394;5.454;2023-02-20T00:16:07;2.90;;;2.80;;
26820;SDS011;37186;51.394;5.454;2023-02-20T00:19:08;2.80;;;2.70;;
26820;SDS011;37186;51.394;5.454;2023-02-20T00:22:08;2.87;;;2.77;;
26820;SDS011;37186;51.394;5.454;2023-02-20T00:25:09;2.70;;;2.70;;
26820;SDS011;37186;51.394;5.454;2023-02-20T00:28:09;2.80;;;2.70;;
26820;SDS011;37186;51.394;5.454;2023-02-20T00:31:11;2.60;;;2.60;;
26820;SDS011;37186;51.394;5.454;2023-02-20T00:34:14;2.60;;;2.60;;
26820;SDS011;37186;51.394;5.454;2023-02-20T00:37:14;2.60;;;2.60;;
26820;SDS011;37186;51.394;5.454;2023-02-20T00:40:16;2.80;;;2.70;;
26820;SDS011;37186;51.394;5.454;2023-02-20T00:43:17;2.60;;;2.60;;
26820;SDS011;37186;51.394;5.454;2023-02-20T00:46:18;2.60;;;2.60;;
26820;SDS011;37186;51.394;5.454;2023-02-20T00:49:18;2.60;;;2.60;;
26820;SDS011;37186;51.394;5.454;2023-02-20T00:52:19;2.70;;;2.70;;
26820;SDS011;37186;51.394;5.454;2023-02-20T00:55:19;2.63;;;2.63;;
26820;SDS011;37186;51.394;5.454;2023-02-20T00:58:20;2.50;;;2.50;;
26820;SDS011;37186;51.394;5.454;2023-02-20T01:01:20;2.80;;;2.70;;
26820;SDS011;37186;51.394;5.454;2023-02-20T01:04:21;2.60;;;2.60;;
26820;SDS011;37186;51.394;5.454;2023-02-20T01:07:22;2.60;;;2.60;;
26820;SDS011;37186;51.394;5.454;2023-02-20T01:10:22;2.60;;;2.60;;
26820;SDS011;37186;51.394;5.454;2023-02-20T01:13:23;2.50;;;2.50;;
26820;SDS011;37186;51.394;5.454;2023-02-20T01:16:23;2.90;;;2.80;;
26820;SDS011;37186;51.394;5.454;2023-02-20T01:19:24;2.70;;;2.70;;
26820;SDS011;37186;51.394;5.454;2023-02-20T01:22:25;2.90;;;2.80;;
26820;SDS011;37186;51.394;5.454;2023-02-20T01:25:26;2.53;;;2.53;;
26820;SDS011;37186;51.394;5.454;2023-02-20T01:28:26;2.80;;;2.70;;
26820;SDS011;37186;51.394;5.454;2023-02-20T01:31:27;2.90;;;2.80;;
26820;SDS011;37186;51.394;5.454;2023-02-20T01:34:28;2.83;;;2.73;;
26820;SDS011;37186;51.394;5.454;2023-02-20T01:37:28;2.70;;;2.70;;
26820;SDS011;37186;51.394;5.454;2023-02-20T01:40:29;2.60;;;2.60;;
26820;SDS011;37186;51.394;5.454;2023-02-20T01:43:29;2.60;;;2.60;;
26820;SDS011;37186;51.394;5.454;2023-02-20T01:49:33;2.90;;;2.80;;
26820;SDS011;37186;51.394;5.454;2023-02-20T01:52:37;2.60;;;2.60;;
26820;SDS011;37186;51.394;5.454;2023-02-20T01:55:40;2.97;;;2.87;;
26820;SDS011;37186;51.394;5.454;2023-02-20T01:58:45;2.97;;;2.87;;
26820;SDS011;37186;51.394;5.454;2023-02-20T02:01:48;2.90;;;2.80;;
26820;SDS011;37186;51.394;5.454;2023-02-20T02:04:49;2.90;;;2.80;;
26820;SDS011;37186;51.394;5.454;2023-02-20T02:07:50;2.60;;;2.60;;
26820;SDS011;37186;51.394;5.454;2023-02-20T02:11:01;2.80;;;2.70;;
26820;SDS011;37186;51.394;5.454;2023-02-20T02:14:04;2.50;;;2.50;;
26820;SDS011;37186;51.394;5.454;2023-02-20T02:17:24;2.67;;;2.67;;
26820;SDS011;37186;51.394;5.454;2023-02-20T02:43:15;2.70;;;2.70;;
26820;SDS011;37186;51.394;5.454;2023-02-20T02:46:25;2.50;;;2.50;;
26820;SDS011;37186;51.394;5.454;2023-02-20T02:52:49;2.80;;;2.70;;
26820;SDS011;37186;51.394;5.454;2023-02-20T02:55:50;2.90;;;2.80;;
26820;SDS011;37186;51.394;5.454;2023-02-20T02:58:51;2.60;;;2.60;;
26820;SDS011;37186;51.394;5.454;2023-02-20T03:01:54;2.50;;;2.50;;
26820;SDS011;37186;51.394;5.454;2023-02-20T03:05:04;2.70;;;2.70;;
26820;SDS011;37186;51.394;5.454;2023-02-20T03:08:10;2.70;;;2.60;;
26820;SDS011;37186;51.394;5.454;2023-02-20T03:11:36;2.70;;;2.70;;
26820;SDS011;37186;51.394;5.454;2023-02-20T03:18:30;2.80;;;2.70;;
26820;SDS011;37186;51.394;5.454;2023-02-20T03:21:36;2.60;;;2.60;;
26820;SDS011;37186;51.394;5.454;2023-02-20T03:24:37;2.60;;;2.60;;
26820;SDS011;37186;51.394;5.454;2023-02-20T03:27:57;2.80;;;2.70;;
26820;SDS011;37186;51.394;5.454;2023-02-20T03:30:59;2.70;;;2.70;;
26820;SDS011;37186;51.394;5.454;2023-02-20T03:37:34;2.67;;;2.67;;
26820;SDS011;37186;51.394;5.454;2023-02-20T03:40:58;2.90;;;2.80;;
26820;SDS011;37186;51.394;5.454;2023-02-20T03:44:17;2.73;;;2.70;;
26820;SDS011;37186;51.394;5.454;2023-02-20T03:47:21;2.60;;;2.60;;
26820;SDS011;37186;51.394;5.454;2023-02-20T03:50:24;2.90;;;2.80;;
26820;SDS011;37186;51.394;5.454;2023-02-20T03:53:25;2.80;;;2.70;;
26820;SDS011;37186;51.394;5.454;2023-02-20T03:56:28;3.00;;;2.90;;
26820;SDS011;37186;51.394;5.454;2023-02-20T04:02:41;2.53;;;2.53;;
26820;SDS011;37186;51.394;5.454;2023-02-20T04:05:45;2.90;;;2.80;;
26820;SDS011;37186;51.394;5.454;2023-02-20T04:08:49;2.73;;;2.70;;
26820;SDS011;37186;51.394;5.454;2023-02-20T04:12:03;2.83;;;2.73;;
26820;SDS011;37186;51.394;5.454;2023-02-20T04:15:13;2.77;;;2.70;;
26820;SDS011;37186;51.394;5.454;2023-02-20T04:18:15;2.80;;;2.70;;
26820;SDS011;37186;51.394;5.454;2023-02-20T04:21:38;2.63;;;2.63;;
26820;SDS011;37186;51.394;5.454;2023-02-20T04:24:55;2.87;;;2.77;;
26820;SDS011;37186;51.394;5.454;2023-02-20T04:27:59;2.77;;;2.70;;
26820;SDS011;37186;51.394;5.454;2023-02-20T04:31:00;2.90;;;2.80;;
26820;SDS011;37186;51.394;5.454;2023-02-20T04:34:01;2.90;;;2.80;;
26820;SDS011;37186;51.394;5.454;2023-02-20T04:37:06;2.93;;;2.83;;
26820;SDS011;37186;51.394;5.454;2023-02-20T04:40:10;2.63;;;2.60;;
26820;SDS011;37186;51.394;5.454;2023-02-20T04:43:12;3.07;;;2.97;;
26820;SDS011;37186;51.394;5.454;2023-02-20T04:46:12;2.90;;;2.80;;
26820;SDS011;37186;51.394;5.454;2023-02-20T04:49:13;2.90;;;2.80;;
26820;SDS011;37186;51.394;5.454;2023-02-20T04:52:13;2.93;;;2.83;;
26820;SDS011;37186;51.394;5.454;2023-02-20T04:55:14;2.93;;;2.83;;
26820;SDS011;37186;51.394;5.454;2023-02-20T04:58:15;3.00;;;2.90;;
26820;SDS011;37186;51.394;5.454;2023-02-20T05:01:15;2.70;;;2.70;;
26820;SDS011;37186;51.394;5.454;2023-02-20T05:04:16;2.80;;;2.70;;
26820;SDS011;37186;51.394;5.454;2023-02-20T05:07:18;2.67;;;2.67;;
26820;SDS011;37186;51.394;5.454;2023-02-20T05:10:19;2.87;;;2.77;;
26820;SDS011;37186;51.394;5.454;2023-02-20T05:13:20;2.90;;;2.80;;
26820;SDS011;37186;51.394;5.454;2023-02-20T05:16:21;3.10;;;3.00;;
26820;SDS011;37186;51.394;5.454;2023-02-20T05:19:21;2.60;;;2.60;;
26820;SDS011;37186;51.394;5.454;2023-02-20T05:22:22;2.90;;;2.80;;
26820;SDS011;37186;51.394;5.454;2023-02-20T05:25:22;3.10;;;3.00;;
26820;SDS011;37186;51.394;5.454;2023-02-20T05:28:23;3.10;;;3.00;;
26820;SDS011;37186;51.394;5.454;2023-02-20T05:31:23;3.00;;;2.90;;
26820;SDS011;37186;51.394;5.454;2023-02-20T05:34:24;3.00;;;2.90;;
26820;SDS011;37186;51.394;5.454;2023-02-20T05:37:25;2.90;;;2.80;;
26820;SDS011;37186;51.394;5.454;2023-02-20T05:40:26;3.03;;;2.93;;
26820;SDS011;37186;51.394;5.454;2023-02-20T05:43:27;2.90;;;2.80;;
26820;SDS011;37186;51.394;5.454;2023-02-20T05:46:27;3.10;;;3.00;;
26820;SDS011;37186;51.394;5.454;2023-02-20T05:49:28;3.00;;;2.90;;
26820;SDS011;37186;51.394;5.454;2023-02-20T05:52:29;3.07;;;2.97;;
26820;SDS011;37186;51.394;5.454;2023-02-20T05:55:30;3.10;;;3.00;;
26820;SDS011;37186;51.394;5.454;2023-02-20T05:58:31;2.90;;;2.80;;
26820;SDS011;37186;51.394;5.454;2023-02-20T06:01:31;3.00;;;2.90;;
26820;SDS011;37186;51.394;5.454;2023-02-20T06:04:33;2.80;;;2.70;;
26820;SDS011;37186;51.394;5.454;2023-02-20T06:07:34;2.90;;;2.80;;
26820;SDS011;37186;51.394;5.454;2023-02-20T06:10:34;3.03;;;2.93;;
26820;SDS011;37186;51.394;5.454;2023-02-20T06:13:35;2.97;;;2.87;;
26820;SDS011;37186;51.394;5.454;2023-02-20T06:16:38;3.00;;;2.90;;
26820;SDS011;37186;51.394;5.454;2023-02-20T06:19:39;3.10;;;3.00;;
26820;SDS011;37186;51.394;5.454;2023-02-20T06:22:39;2.90;;;2.80;;
26820;SDS011;37186;51.394;5.454;2023-02-20T06:25:40;2.97;;;2.87;;
26820;SDS011;37186;51.394;5.454;2023-02-20T06:28:41;2.90;;;2.80;;
26820;SDS011;37186;51.394;5.454;2023-02-20T06:31:42;2.97;;;2.87;;
26820;SDS011;37186;51.394;5.454;2023-02-20T06:34:43;3.00;;;2.90;;
26820;SDS011;37186;51.394;5.454;2023-02-20T06:37:44;3.00;;;2.90;;
26820;SDS011;37186;51.394;5.454;2023-02-20T06:40:44;2.97;;;2.87;;
26820;SDS011;37186;51.394;5.454;2023-02-20T06:43:45;3.03;;;2.93;;
26820;SDS011;37186;51.394;5.454;2023-02-20T06:46:46;3.00;;;2.90;;
26820;SDS011;37186;51.394;5.454;2023-02-20T06:49:47;3.00;;;2.90;;
26820;SDS011;37186;51.394;5.454;2023-02-20T06:52:47;3.10;;;3.00;;
26820;SDS011;37186;51.394;5.454;2023-02-20T06:55:48;2.97;;;2.87;;
26820;SDS011;37186;51.394;5.454;2023-02-20T06:58:49;3.30;;;3.20;;
26820;SDS011;37186;51.394;5.454;2023-02-20T07:01:50;2.73;;;2.70;;
26820;SDS011;37186;51.394;5.454;2023-02-20T07:04:51;3.03;;;2.93;;
26820;SDS011;37186;51.394;5.454;2023-02-20T07:07:51;3.00;;;2.90;;
26820;SDS011;37186;51.394;5.454;2023-02-20T07:10:52;3.10;;;3.00;;
26820;SDS011;37186;51.394;5.454;2023-02-20T07:13:54;3.00;;;2.90;;
26820;SDS011;37186;51.394;5.454;2023-02-20T07:16:56;3.07;;;2.97;;
26820;SDS011;37186;51.394;5.454;2023-02-20T07:19:57;3.00;;;2.90;;
26820;SDS011;37186;51.394;5.454;2023-02-20T07:22:58;3.20;;;3.10;;
26820;SDS011;37186;51.394;5.454;2023-02-20T07:25:58;3.07;;;2.97;;
26820;SDS011;37186;51.394;5.454;2023-02-20T07:28:59;3.10;;;3.00;;
26820;SDS011;37186;51.394;5.454;2023-02-20T07:32:00;2.93;;;2.83;;
26820;SDS011;37186;51.394;5.454;2023-02-20T07:35:00;2.90;;;2.80;;
26820;SDS011;37186;51.394;5.454;2023-02-20T07:38:01;3.00;;;2.90;;
26820;SDS011;37186;51.394;5.454;2023-02-20T07:41:02;2.87;;;2.77;;
26820;SDS011;37186;51.394;5.454;2023-02-20T07:44:02;2.77;;;2.70;;
26820;SDS011;37186;51.394;5.454;2023-02-20T07:47:03;3.10;;;3.00;;
26820;SDS011;37186;51.394;5.454;2023-02-20T07:50:04;3.00;;;2.90;;
26820;SDS011;37186;51.394;5.454;2023-02-20T07:53:05;2.90;;;2.80;;
26820;SDS011;37186;51.394;5.454;2023-02-20T07:56:05;3.10;;;3.00;;
26820;SDS011;37186;51.394;5.454;2023-02-20T07:59:06;2.97;;;2.87;;
26820;SDS011;37186;51.394;5.454;2023-02-20T08:02:06;2.87;;;2.77;;
26820;SDS011;37186;51.394;5.454;2023-02-20T08:05:07;3.00;;;2.90;;
26820;SDS011;37186;51.394;5.454;2023-02-20T08:08:08;2.97;;;2.87;;
26820;SDS011;37186;51.394;5.454;2023-02-20T08:11:09;3.00;;;2.90;;
26820;SDS011;37186;51.394;5.454;2023-02-20T08:14:09;3.10;;;3.00;;
26820;SDS011;37186;51.394;5.454;2023-02-20T08:17:12;3.00;;;2.90;;
26820;SDS011;37186;51.394;5.454;2023-02-20T08:20:14;3.00;;;2.90;;
26820;SDS011;37186;51.394;5.454;2023-02-20T08:23:17;3.00;;;2.90;;
26820;SDS011;37186;51.394;5.454;2023-02-20T08:26:19;3.07;;;2.97;;
26820;SDS011;37186;51.394;5.454;2023-02-20T08:29:20;3.07;;;2.97;;
26820;SDS011;37186;51.394;5.454;2023-02-20T08:32:20;3.00;;;2.90;;
26820;SDS011;37186;51.394;5.454;2023-02-20T08:35:22;3.07;;;2.97;;
26820;SDS011;37186;51.394;5.454;2023-02-20T08:41:32;3.10;;;3.00;;
26820;SDS011;37186;51.394;5.454;2023-02-20T08:44:32;3.17;;;3.07;;
26820;SDS011;37186;51.394;5.454;2023-02-20T08:47:33;3.13;;;3.03;;
26820;SDS011;37186;51.394;5.454;2023-02-20T08:50:34;3.07;;;2.97;;
26820;SDS011;37186;51.394;5.454;2023-02-20T08:53:36;2.93;;;2.83;;
26820;SDS011;37186;51.394;5.454;2023-02-20T08:56:37;3.20;;;3.10;;
26820;SDS011;37186;51.394;5.454;2023-02-20T08:59:38;3.10;;;3.00;;
26820;SDS011;37186;51.394;5.454;2023-02-20T09:02:39;2.97;;;2.87;;
26820;SDS011;37186;51.394;5.454;2023-02-20T09:05:39;3.20;;;3.10;;
26820;SDS011;37186;51.394;5.454;2023-02-20T09:08:40;3.00;;;2.90;;
26820;SDS011;37186;51.394;5.454;2023-02-20T09:11:41;3.20;;;3.10;;
26820;SDS011;37186;51.394;5.454;2023-02-20T09:14:41;3.03;;;2.93;;
26820;SDS011;37186;51.394;5.454;2023-02-20T09:17:43;3.00;;;2.90;;
26820;SDS011;37186;51.394;5.454;2023-02-20T09:20:46;2.97;;;2.87;;
26820;SDS011;37186;51.394;5.454;2023-02-20T09:23:47;3.10;;;3.00;;
26820;SDS011;37186;51.394;5.454;2023-02-20T09:26:47;3.17;;;3.07;;
26820;SDS011;37186;51.394;5.454;2023-02-20T09:29:48;3.20;;;3.10;;
26820;SDS011;37186;51.394;5.454;2023-02-20T09:32:49;3.13;;;3.03;;
26820;SDS011;37186;51.394;5.454;2023-02-20T09:35:50;3.20;;;3.10;;
26820;SDS011;37186;51.394;5.454;2023-02-20T09:38:50;3.13;;;3.03;;
26820;SDS011;37186;51.394;5.454;2023-02-20T09:45:26;3.00;;;2.90;;
26820;SDS011;37186;51.394;5.454;2023-02-20T09:51:50;3.00;;;2.90;;
26820;SDS011;37186;51.394;5.454;2023-02-20T09:55:01;3.27;;;3.17;;
26820;SDS011;37186;51.394;5.454;2023-02-20T09:58:04;3.23;;;3.13;;
26820;SDS011;37186;51.394;5.454;2023-02-20T10:01:06;3.43;;;3.33;;
26820;SDS011;37186;51.394;5.454;2023-02-20T10:04:13;3.27;;;3.17;;
26820;SDS011;37186;51.394;5.454;2023-02-20T10:07:28;3.27;;;3.17;;
26820;SDS011;37186;51.394;5.454;2023-02-20T10:10:32;3.13;;;3.03;;
26820;SDS011;37186;51.394;5.454;2023-02-20T10:17:13;3.40;;;3.30;;
26820;SDS011;37186;51.394;5.454;2023-02-20T10:20:57;3.13;;;3.03;;
26820;SDS011;37186;51.394;5.454;2023-02-20T10:31:03;3.40;;;3.30;;
26820;SDS011;37186;51.394;5.454;2023-02-20T10:37:44;3.63;;;3.53;;
26820;SDS011;37186;51.394;5.454;2023-02-20T10:44:26;3.43;;;3.33;;
26820;SDS011;37186;51.394;5.454;2023-02-20T10:47:50;3.33;;;3.23;;
26820;SDS011;37186;51.394;5.454;2023-02-20T10:51:05;3.40;;;3.30;;
26820;SDS011;37186;51.394;5.454;2023-02-20T10:54:15;3.33;;;3.23;;
26820;SDS011;37186;51.394;5.454;2023-02-20T10:57:35;3.60;;;3.50;;
26820;SDS011;37186;51.394;5.454;2023-02-20T11:00:48;3.47;;;3.37;;
26820;SDS011;37186;51.394;5.454;2023-02-20T11:06:59;3.80;;;3.70;;
26820;SDS011;37186;51.394;5.454;2023-02-20T11:10:04;3.87;;;3.77;;
26820;SDS011;37186;51.394;5.454;2023-02-20T11:13:07;3.70;;;3.60;;
26820;SDS011;37186;51.394;5.454;2023-02-20T11:16:20;3.67;;;3.57;;
26820;SDS011;37186;51.394;5.454;2023-02-20T11:19:26;3.70;;;3.60;;
26820;SDS011;37186;51.394;5.454;2023-02-20T11:22:44;3.80;;;3.70;;
26820;SDS011;37186;51.394;5.454;2023-02-20T11:25:46;3.93;;;3.83;;
26820;SDS011;37186;51.394;5.454;2023-02-20T11:32:26;3.80;;;3.70;;
26820;SDS011;37186;51.394;5.454;2023-02-20T11:35:33;3.73;;;3.63;;
26820;SDS011;37186;51.394;5.454;2023-02-20T11:38:36;3.90;;;3.80;;
26820;SDS011;37186;51.394;5.454;2023-02-20T11:41:38;3.77;;;3.67;;
26820;SDS011;37186;51.394;5.454;2023-02-20T11:44:38;3.90;;;3.80;;
26820;SDS011;37186;51.394;5.454;2023-02-20T11:47:39;3.73;;;3.63;;
26820;SDS011;37186;51.394;5.454;2023-02-20T11:53:47;3.93;;;3.83;;
26820;SDS011;37186;51.394;5.454;2023-02-20T12:03:23;3.90;;;3.80;;
26820;SDS011;37186;51.394;5.454;2023-02-20T12:09:36;3.93;;;3.83;;
26820;SDS011;37186;51.394;5.454;2023-02-20T12:12:37;3.87;;;3.77;;
26820;SDS011;37186;51.394;5.454;2023-02-20T12:15:37;3.90;;;3.80;;
26820;SDS011;37186;51.394;5.454;2023-02-20T12:18:44;3.83;;;3.73;;
26820;SDS011;37186;51.394;5.454;2023-02-20T12:38:16;3.70;;;3.60;;
26820;SDS011;37186;51.394;5.454;2023-02-20T12:41:56;3.77;;;3.67;;
26820;SDS011;37186;51.394;5.454;2023-02-20T12:45:15;3.73;;;3.63;;
26820;SDS011;37186;51.394;5.454;2023-02-20T12:51:47;3.90;;;3.80;;
26820;SDS011;37186;51.394;5.454;2023-02-20T12:55:23;3.70;;;3.60;;
26820;SDS011;37186;51.394;5.454;2023-02-20T12:59:06;3.67;;;3.57;;
26820;SDS011;37186;51.394;5.454;2023-02-20T13:02:44;3.67;;;3.57;;
26820;SDS011;37186;51.394;5.454;2023-02-20T13:05:48;3.63;;;3.53;;
26820;SDS011;37186;51.394;5.454;2023-02-20T13:12:27;3.57;;;3.47;;
26820;SDS011;37186;51.394;5.454;2023-02-20T13:18:56;3.90;;;3.80;;
26820;SDS011;37186;51.394;5.454;2023-02-20T13:22:04;3.70;;;3.60;;
26820;SDS011;37186;51.394;5.454;2023-02-20T13:28:43;3.90;;;3.80;;
26820;SDS011;37186;51.394;5.454;2023-02-20T13:31:48;3.50;;;3.40;;
26820;SDS011;37186;51.394;5.454;2023-02-20T13:34:50;3.77;;;3.67;;
26820;SDS011;37186;51.394;5.454;2023-02-20T13:37:52;3.80;;;3.70;;
26820;SDS011;37186;51.394;5.454;2023-02-20T13:43:54;3.83;;;3.73;;
26820;SDS011;37186;51.394;5.454;2023-02-20T13:50:33;3.87;;;3.77;;
26820;SDS011;37186;51.394;5.454;2023-02-20T13:53:33;3.90;;;3.80;;
26820;SDS011;37186;51.394;5.454;2023-02-20T13:59:38;3.93;;;3.83;;
26820;SDS011;37186;51.394;5.454;2023-02-20T14:02:39;3.83;;;3.73;;
26820;SDS011;37186;51.394;5.454;2023-02-20T14:05:40;3.93;;;3.83;;
26820;SDS011;37186;51.394;5.454;2023-02-20T14:08:42;4.10;;;4.00;;
26820;SDS011;37186;51.394;5.454;2023-02-20T14:11:44;3.90;;;3.80;;
26820;SDS011;37186;51.394;5.454;2023-02-20T14:14:44;4.03;;;3.93;;
26820;SDS011;37186;51.394;5.454;2023-02-20T14:17:46;4.07;;;3.97;;
26820;SDS011;37186;51.394;5.454;2023-02-20T14:20:50;3.90;;;3.80;;
26820;SDS011;37186;51.394;5.454;2023-02-20T14:24:03;4.27;;;4.17;;
26820;SDS011;37186;51.394;5.454;2023-02-20T14:27:29;3.87;;;3.77;;
26820;SDS011;37186;51.394;5.454;2023-02-20T14:30:31;4.13;;;4.03;;
26820;SDS011;37186;51.394;5.454;2023-02-20T14:33:33;3.93;;;3.83;;
26820;SDS011;37186;51.394;5.454;2023-02-20T14:36:44;4.10;;;4.00;;
26820;SDS011;37186;51.394;5.454;2023-02-20T14:39:56;4.37;;;4.27;;
26820;SDS011;37186;51.394;5.454;2023-02-20T14:43:01;3.93;;;3.83;;
26820;SDS011;37186;51.394;5.454;2023-02-20T14:49:06;4.27;;;4.17;;
26820;SDS011;37186;51.394;5.454;2023-02-20T14:52:18;4.13;;;4.03;;
26820;SDS011;37186;51.394;5.454;2023-02-20T14:55:24;4.17;;;4.07;;
26820;SDS011;37186;51.394;5.454;2023-02-20T14:58:24;4.40;;;4.30;;
26820;SDS011;37186;51.394;5.454;2023-02-20T15:04:45;4.10;;;4.00;;
26820;SDS011;37186;51.394;5.454;2023-02-20T15:07:47;4.20;;;4.10;;
26820;SDS011;37186;51.394;5.454;2023-02-20T15:10:49;4.20;;;4.10;;
26820;SDS011;37186;51.394;5.454;2023-02-20T15:13:51;4.10;;;4.00;;
26820;SDS011;37186;51.394;5.454;2023-02-20T15:23:37;4.40;;;4.30;;
26820;SDS011;37186;51.394;5.454;2023-02-20T15:26:39;4.10;;;4.00;;
26820;SDS011;37186;51.394;5.454;2023-02-20T15:29:40;4.30;;;4.20;;
26820;SDS011;37186;51.394;5.454;2023-02-20T15:32:42;4.30;;;4.20;;
26820;SDS011;37186;51.394;5.454;2023-02-20T15:35:50;4.33;;;4.23;;
26820;SDS011;37186;51.394;5.454;2023-02-20T15:38:51;4.37;;;4.27;;
26820;SDS011;37186;51.394;5.454;2023-02-20T15:41:53;4.00;;;3.90;;
26820;SDS011;37186;51.394;5.454;2023-02-20T15:44:54;4.37;;;4.27;;
26820;SDS011;37186;51.394;5.454;2023-02-20T15:47:54;4.37;;;4.27;;
26820;SDS011;37186;51.394;5.454;2023-02-20T15:50:56;4.50;;;4.40;;
26820;SDS011;37186;51.394;5.454;2023-02-20T15:53:56;4.37;;;4.27;;
26820;SDS011;37186;51.394;5.454;2023-02-20T15:56:57;4.40;;;4.30;;
26820;SDS011;37186;51.394;5.454;2023-02-20T15:59:58;4.30;;;4.20;;
26820;SDS011;37186;51.394;5.454;2023-02-20T16:02:59;4.40;;;4.30;;
26820;SDS011;37186;51.394;5.454;2023-02-20T16:06:00;4.30;;;4.20;;
26820;SDS011;37186;51.394;5.454;2023-02-20T16:09:01;4.40;;;4.30;;
26820;SDS011;37186;51.394;5.454;2023-02-20T16:12:02;4.50;;;4.40;;
26820;SDS011;37186;51.394;5.454;2023-02-20T16:15:03;4.43;;;4.33;;
26820;SDS011;37186;51.394;5.454;2023-02-20T16:18:04;4.40;;;4.30;;
26820;SDS011;37186;51.394;5.454;2023-02-20T16:21:05;4.60;;;4.50;;
26820;SDS011;37186;51.394;5.454;2023-02-20T16:24:05;4.70;;;4.60;;
26820;SDS011;37186;51.394;5.454;2023-02-20T16:27:08;4.70;;;4.60;;
26820;SDS011;37186;51.394;5.454;2023-02-20T16:30:33;4.53;;;4.43;;
26820;SDS011;37186;51.394;5.454;2023-02-20T16:33:37;4.43;;;4.33;;
26820;SDS011;37186;51.394;5.454;2023-02-20T16:36:37;4.30;;;4.20;;
26820;SDS011;37186;51.394;5.454;2023-02-20T16:39:38;4.17;;;4.07;;
26820;SDS011;37186;51.394;5.454;2023-02-20T16:42:39;4.60;;;4.50;;
26820;SDS011;37186;51.394;5.454;2023-02-20T16:45:40;4.37;;;4.27;;
26820;SDS011;37186;51.394;5.454;2023-02-20T16:48:42;4.40;;;4.30;;
26820;SDS011;37186;51.394;5.454;2023-02-20T16:51:48;4.20;;;4.10;;
26820;SDS011;37186;51.394;5.454;2023-02-20T16:54:50;4.40;;;4.30;;
26820;SDS011;37186;51.394;5.454;2023-02-20T16:57:53;4.20;;;4.10;;
26820;SDS011;37186;51.394;5.454;2023-02-20T17:00:54;4.47;;;4.37;;
26820;SDS011;37186;51.394;5.454;2023-02-20T17:03:55;4.47;;;4.37;;
26820;SDS011;37186;51.394;5.454;2023-02-20T17:06:55;4.47;;;4.37;;
26820;SDS011;37186;51.394;5.454;2023-02-20T17:09:56;4.63;;;4.53;;
26820;SDS011;37186;51.394;5.454;2023-02-20T17:12:57;4.50;;;4.40;;
26820;SDS011;37186;51.394;5.454;2023-02-20T17:15:58;4.63;;;4.53;;
26820;SDS011;37186;51.394;5.454;2023-02-20T17:18:58;4.73;;;4.63;;
26820;SDS011;37186;51.394;5.454;2023-02-20T17:21:59;4.67;;;4.57;;
26820;SDS011;37186;51.394;5.454;2023-02-20T17:25:00;4.77;;;4.67;;
26820;SDS011;37186;51.394;5.454;2023-02-20T17:28:01;4.87;;;4.77;;
26820;SDS011;37186;51.394;5.454;2023-02-20T17:31:03;4.83;;;4.73;;
26820;SDS011;37186;51.394;5.454;2023-02-20T17:34:04;4.67;;;4.57;;
26820;SDS011;37186;51.394;5.454;2023-02-20T17:37:06;4.70;;;4.60;;
26820;SDS011;37186;51.394;5.454;2023-02-20T17:40:07;4.90;;;4.80;;
26820;SDS011;37186;51.394;5.454;2023-02-20T17:43:08;4.70;;;4.60;;
26820;SDS011;37186;51.394;5.454;2023-02-20T17:46:09;4.77;;;4.67;;
26820;SDS011;37186;51.394;5.454;2023-02-20T17:49:10;4.83;;;4.73;;
26820;SDS011;37186;51.394;5.454;2023-02-20T17:52:11;4.97;;;4.87;;
26820;SDS011;37186;51.394;5.454;2023-02-20T17:55:16;4.77;;;4.67;;
26820;SDS011;37186;51.394;5.454;2023-02-20T17:58:17;4.60;;;4.50;;
26820;SDS011;37186;51.394;5.454;2023-02-20T18:01:18;4.67;;;4.57;;
26820;SDS011;37186;51.394;5.454;2023-02-20T18:04:21;4.57;;;4.47;;
26820;SDS011;37186;51.394;5.454;2023-02-20T18:07:22;4.67;;;4.57;;
26820;SDS011;37186;51.394;5.454;2023-02-20T18:10:22;4.73;;;4.63;;
26820;SDS011;37186;51.394;5.454;2023-02-20T18:13:23;4.90;;;4.80;;
26820;SDS011;37186;51.394;5.454;2023-02-20T18:16:25;5.03;;;4.93;;
26820;SDS011;37186;51.394;5.454;2023-02-20T18:19:26;4.97;;;4.87;;
26820;SDS011;37186;51.394;5.454;2023-02-20T18:22:27;4.77;;;4.67;;
26820;SDS011;37186;51.394;5.454;2023-02-20T18:25:28;4.90;;;4.80;;
26820;SDS011;37186;51.394;5.454;2023-02-20T18:28:29;4.60;;;4.50;;
26820;SDS011;37186;51.394;5.454;2023-02-20T18:31:29;5.20;;;5.10;;
26820;SDS011;37186;51.394;5.454;2023-02-20T18:34:30;4.87;;;4.77;;
26820;SDS011;37186;51.394;5.454;2023-02-20T18:37:30;4.87;;;4.77;;
26820;SDS011;37186;51.394;5.454;2023-02-20T18:40:31;4.90;;;4.80;;
26820;SDS011;37186;51.394;5.454;2023-02-20T18:43:32;4.77;;;4.67;;
26820;SDS011;37186;51.394;5.454;2023-02-20T18:46:34;4.83;;;4.73;;
26820;SDS011;37186;51.394;5.454;2023-02-20T18:49:35;4.87;;;4.77;;
26820;SDS011;37186;51.394;5.454;2023-02-20T18:52:36;4.83;;;4.73;;
26820;SDS011;37186;51.394;5.454;2023-02-20T18:55:36;4.80;;;4.70;;
26820;SDS011;37186;51.394;5.454;2023-02-20T18:58:37;4.77;;;4.67;;
26820;SDS011;37186;51.394;5.454;2023-02-20T19:01:41;4.63;;;4.53;;
26820;SDS011;37186;51.394;5.454;2023-02-20T19:04:42;4.87;;;4.77;;
26820;SDS011;37186;51.394;5.454;2023-02-20T19:07:43;4.77;;;4.67;;
26820;SDS011;37186;51.394;5.454;2023-02-20T19:10:45;4.77;;;4.67;;
26820;SDS011;37186;51.394;5.454;2023-02-20T19:13:45;4.87;;;4.77;;
26820;SDS011;37186;51.394;5.454;2023-02-20T19:16:50;4.67;;;4.57;;
26820;SDS011;37186;51.394;5.454;2023-02-20T19:19:55;4.70;;;4.60;;
26820;SDS011;37186;51.394;5.454;2023-02-20T19:22:56;4.87;;;4.77;;
26820;SDS011;37186;51.394;5.454;2023-02-20T19:25:57;4.80;;;4.70;;
26820;SDS011;37186;51.394;5.454;2023-02-20T19:28:58;4.80;;;4.70;;
26820;SDS011;37186;51.394;5.454;2023-02-20T19:31:58;4.77;;;4.67;;
26820;SDS011;37186;51.394;5.454;2023-02-20T19:35:00;4.73;;;4.63;;
26820;SDS011;37186;51.394;5.454;2023-02-20T19:38:00;4.97;;;4.87;;
26820;SDS011;37186;51.394;5.454;2023-02-20T19:41:01;4.80;;;4.70;;
26820;SDS011;37186;51.394;5.454;2023-02-20T19:44:01;4.50;;;4.40;;
26820;SDS011;37186;51.394;5.454;2023-02-20T19:47:02;4.60;;;4.50;;
26820;SDS011;37186;51.394;5.454;2023-02-20T19:50:03;4.73;;;4.63;;
26820;SDS011;37186;51.394;5.454;2023-02-20T19:53:04;4.90;;;4.80;;
26820;SDS011;37186;51.394;5.454;2023-02-20T19:56:05;4.90;;;4.80;;
26820;SDS011;37186;51.394;5.454;2023-02-20T19:59:09;4.73;;;4.63;;
26820;SDS011;37186;51.394;5.454;2023-02-20T20:02:10;4.70;;;4.60;;
26820;SDS011;37186;51.394;5.454;2023-02-20T20:05:13;4.63;;;4.53;;
26820;SDS011;37186;51.394;5.454;2023-02-20T20:08:14;4.60;;;4.50;;
26820;SDS011;37186;51.394;5.454;2023-02-20T20:11:15;4.90;;;4.80;;
26820;SDS011;37186;51.394;5.454;2023-02-20T20:14:15;4.83;;;4.73;;
26820;SDS011;37186;51.394;5.454;2023-02-20T20:17:18;4.80;;;4.70;;
26820;SDS011;37186;51.394;5.454;2023-02-20T20:20:19;4.57;;;4.47;;
26820;SDS011;37186;51.394;5.454;2023-02-20T20:23:20;4.40;;;4.30;;
26820;SDS011;37186;51.394;5.454;2023-02-20T20:26:24;4.37;;;4.27;;
26820;SDS011;37186;51.394;5.454;2023-02-20T20:29:27;4.30;;;4.20;;
26820;SDS011;37186;51.394;5.454;2023-02-20T20:32:27;4.40;;;4.30;;
26820;SDS011;37186;51.394;5.454;2023-02-20T20:35:28;4.27;;;4.17;;
26820;SDS011;37186;51.394;5.454;2023-02-20T20:38:29;4.20;;;4.10;;
26820;SDS011;37186;51.394;5.454;2023-02-20T20:41:30;4.23;;;4.13;;
26820;SDS011;37186;51.394;5.454;2023-02-20T20:44:30;4.10;;;4.00;;